SCVM 201700Z 24007KT 9999 BKN016 18/15 Q1016